Time;durP1;ratioP1;P1;durP2;ratioP2;P2;SDS_P1;SDS_P2;PMS_P1;PMS_P2;Temp;Humidity;BMP_temperature;BMP_pressure;BME280_temperature;BME280_humidity;BME280_pressure;Samples;Min_cycle;Max_cycle;Signal;HPM_P1;HPM_P2
2023/11/02 03:07:19;;;;;;;5.40;3.70;;;;;;;11.89;100.00;100284.34;106045;1260;60622;-87
2023/11/02 03:10:03;;;;;;;7.00;4.40;;;;;;;11.86;100.00;100281.58;106252;1254;60668;-85
2023/11/02 03:12:44;;;;;;;9.10;4.50;;;;;;;11.96;100.00;100282.18;106178;1260;72636;-87
2023/11/02 03:15:28;;;;;;;9.60;4.50;;;;;;;12.03;100.00;100284.19;105971;1254;67617;-85
2023/11/02 03:18:16;;;;;;;5.50;4.10;;;;;;;11.90;100.00;100286.35;106700;1258;72683;-85
2023/11/02 03:20:58;;;;;;;5.60;4.10;;;;;;;11.86;100.00;100287.86;106036;1254;61680;-87
2023/11/02 03:23:50;;;;;;;4.90;3.70;;;;;;;11.82;100.00;100288.78;106012;1254;60502;-86
2023/11/02 03:26:55;;;;;;;6.70;3.80;;;;;;;11.81;100.00;100294.44;106275;1254;72555;-86
2023/11/02 03:29:53;;;;;;;6.10;4.20;;;;;;;11.78;100.00;100299.13;107174;1254;67262;-86
2023/11/02 03:32:37;;;;;;;6.40;4.40;;;;;;;11.74;100.00;100303.32;106131;1257;73119;-87
2023/11/02 03:35:23;;;;;;;6.30;4.20;;;;;;;11.65;100.00;100306.01;105967;1256;60493;-86
2023/11/02 03:38:18;;;;;;;6.80;3.70;;;;;;;11.68;100.00;100306.73;106092;1257;60774;-86
2023/11/02 03:41:09;;;;;;;8.10;4.20;;;;;;;11.67;100.00;100304.28;106760;1254;72568;-87
2023/11/02 03:44:22;;;;;;;5.10;4.00;;;;;;;11.55;100.00;100304.52;105954;1263;67115;-86
2023/11/02 03:47:11;;;;;;;5.60;4.10;;;;;;;11.69;100.00;100302.23;106163;1255;70931;-87
2023/11/02 03:50:01;;;;;;;6.10;4.40;;;;;;;11.66;100.00;100306.38;106547;1257;60478;-87
2023/11/02 03:52:45;;;;;;;5.30;3.70;;;;;;;11.56;100.00;100309.80;106070;1259;60373;-86
2023/11/02 03:55:44;;;;;;;4.40;3.80;;;;;;;11.36;100.00;100313.02;106157;1257;72354;-86
2023/11/02 03:58:48;;;;;;;6.30;3.90;;;;;;;11.31;100.00;100314.21;106156;1254;68923;-86
2023/11/02 04:01:37;;;;;;;7.10;3.70;;;;;;;11.28;100.00;100319.98;106020;1258;72677;-85
2023/11/02 04:04:18;;;;;;;3.90;3.30;;;;;;;11.40;100.00;100321.79;106319;1261;60483;-86
2023/11/02 04:07:06;;;;;;;4.70;4.00;;;;;;;11.39;100.00;100319.55;106123;1257;60547;-86
2023/11/02 04:10:00;;;;;;;5.20;4.10;;;;;;;11.51;100.00;100316.92;106632;1257;73870;-86
2023/11/02 04:13:03;;;;;;;5.90;3.50;;;;;;;11.47;100.00;100319.15;106064;1253;67543;-86
2023/11/02 04:15:43;;;;;;;5.50;3.80;;;;;;;11.39;100.00;100326.71;106249;1254;71393;-86
2023/11/02 04:18:24;;;;;;;6.30;3.80;;;;;;;11.33;100.00;100330.23;106273;1253;60575;-86
2023/11/02 04:21:04;;;;;;;5.40;4.20;;;;;;;11.43;100.00;100331.88;106574;1258;59624;-86
2023/11/02 04:23:44;;;;;;;6.00;3.70;;;;;;;11.28;100.00;100335.35;106779;1253;72704;-86
2023/11/02 04:26:24;;;;;;;6.00;3.70;;;;;;;11.05;100.00;100331.38;106720;1253;68755;-86
2023/11/02 04:29:04;;;;;;;3.80;3.50;;;;;;;11.00;100.00;100336.13;106703;1253;71451;-86
2023/11/02 04:31:43;;;;;;;6.80;3.70;;;;;;;10.99;100.00;100336.67;107788;1254;59385;-87
2023/11/02 04:34:23;;;;;;;4.30;3.80;;;;;;;11.02;100.00;100332.77;106635;1254;60575;-86
2023/11/02 04:37:04;;;;;;;6.00;3.30;;;;;;;10.98;100.00;100336.20;107670;1255;77522;-87
2023/11/02 04:39:43;;;;;;;5.60;3.20;;;;;;;11.01;100.00;100342.20;107019;1253;67308;-87
2023/11/02 04:42:30;;;;;;;4.30;3.00;;;;;;;11.06;100.00;100344.77;106302;1254;71628;-87
2023/11/02 04:45:16;;;;;;;5.30;3.30;;;;;;;11.11;100.00;100348.67;106230;1255;60526;-85
2023/11/02 04:47:58;;;;;;;3.40;3.00;;;;;;;11.05;100.00;100349.70;106309;1254;60550;-85
2023/11/02 04:50:38;;;;;;;5.40;3.40;;;;;;;10.89;100.00;100357.70;107105;1258;72596;-86
2023/11/02 04:53:18;;;;;;;4.60;3.50;;;;;;;10.78;100.00;100355.52;106246;1253;68398;-85
2023/11/02 04:55:58;;;;;;;5.60;3.60;;;;;;;10.86;100.00;100359.45;106368;1259;70730;-85
2023/11/02 04:58:38;;;;;;;4.70;3.20;;;;;;;10.93;100.00;100364.94;106254;1256;61958;-85
2023/11/02 05:01:18;;;;;;;3.80;3.00;;;;;;;11.04;100.00;100369.35;106541;1253;60574;-86
2023/11/02 05:04:00;;;;;;;4.60;3.10;;;;;;;11.07;100.00;100375.61;106074;1256;73606;-86
2023/11/02 05:06:40;;;;;;;4.40;3.50;;;;;;;11.09;100.00;100372.88;106230;1253;68718;-85
2023/11/02 05:09:20;;;;;;;4.00;3.10;;;;;;;11.21;100.00;100373.11;106288;1255;72466;-85
2023/11/02 05:12:00;;;;;;;4.20;3.10;;;;;;;11.35;100.00;100376.23;106832;1254;60551;-86
2023/11/02 05:14:41;;;;;;;7.00;3.20;;;;;;;11.39;100.00;100380.60;106221;1253;60522;-85
2023/11/02 05:17:21;;;;;;;4.30;3.10;;;;;;;11.44;100.00;100379.31;105992;1258;278959;-85
2023/11/02 05:20:02;;;;;;;3.50;3.20;;;;;;;11.13;100.00;100382.84;106138;1259;67125;-86
2023/11/02 05:22:44;;;;;;;3.70;2.70;;;;;;;11.22;100.00;100382.62;106955;1253;71518;-85
2023/11/02 05:25:24;;;;;;;5.50;3.20;;;;;;;11.27;100.00;100383.77;106433;1253;61709;-85
2023/11/02 05:28:04;;;;;;;3.40;2.70;;;;;;;11.23;100.00;100382.77;106308;1254;60877;-85
2023/11/02 05:30:44;;;;;;;4.10;2.80;;;;;;;11.21;100.00;100383.55;106303;1254;74126;-85
2023/11/02 05:33:23;;;;;;;4.90;3.20;;;;;;;11.20;100.00;100383.98;106799;1254;68410;-86
2023/11/02 05:36:04;;;;;;;5.50;3.10;;;;;;;11.34;100.00;100380.87;106072;1254;72643;-86
2023/11/02 05:38:45;;;;;;;3.60;2.70;;;;;;;11.47;100.00;100390.61;106100;1253;60537;-85
2023/11/02 05:41:25;;;;;;;3.40;2.70;;;;;;;11.54;100.00;100389.77;106267;1255;60341;-85
2023/11/02 05:44:05;;;;;;;4.20;2.70;;;;;;;11.64;100.00;100394.36;106574;1253;74159;-86
2023/11/02 05:46:45;;;;;;;4.50;2.70;;;;;;;11.81;100.00;100395.84;106220;1253;67084;-86
2023/11/02 05:49:25;;;;;;;5.50;2.70;;;;;;;11.93;100.00;100394.65;106347;1254;71368;-86
2023/11/02 05:52:05;;;;;;;4.80;2.70;;;;;;;12.04;100.00;100399.73;106898;1253;60453;-85
2023/11/02 05:54:45;;;;;;;3.90;2.50;;;;;;;12.13;100.00;100397.58;106227;1253;60521;-87
2023/11/02 05:57:24;;;;;;;2.80;2.30;;;;;;;12.18;100.00;100397.95;106467;1254;72365;-86
2023/11/02 06:00:10;;;;;;;3.70;2.60;;;;;;;12.25;100.00;100402.14;106169;1254;68424;-85
2023/11/02 06:02:54;;;;;;;6.30;2.60;;;;;;;12.31;100.00;100400.59;106381;1254;71500;-86
2023/11/02 06:05:34;;;;;;;3.50;2.80;;;;;;;12.46;100.00;100401.88;107100;1254;60546;-87
2023/11/02 06:08:14;;;;;;;3.20;2.60;;;;;;;12.56;100.00;100403.63;106255;1258;60533;-88
2023/11/02 06:10:54;;;;;;;7.70;2.70;;;;;;;12.64;100.00;100399.91;106109;1253;72978;-87
2023/11/02 06:13:41;;;;;;;5.00;2.70;;;;;;;12.86;100.00;100404.27;106095;1260;67114;-87
2023/11/02 06:16:23;;;;;;;3.20;2.60;;;;;;;13.00;100.00;100412.08;106751;1260;71222;-85
2023/11/02 06:19:03;;;;;;;3.30;2.70;;;;;;;13.31;100.00;100412.67;106198;1254;60746;-85
2023/11/02 06:21:43;;;;;;;4.60;2.50;;;;;;;12.94;100.00;100415.79;106356;1253;60540;-85
2023/11/02 06:24:24;;;;;;;3.50;2.50;;;;;;;12.92;100.00;100415.37;106148;1253;73833;-85
2023/11/02 06:27:06;;;;;;;3.20;2.60;;;;;;;12.99;100.00;100412.59;106746;1254;68431;-87
2023/11/02 06:29:46;;;;;;;4.20;2.80;;;;;;;13.10;100.00;100416.77;106187;1255;71439;-88
2023/11/02 06:32:26;;;;;;;4.80;3.00;;;;;;;13.17;100.00;100420.17;106352;1253;60363;-84
2023/11/02 06:35:06;;;;;;;6.00;2.90;;;;;;;13.29;100.00;100422.25;106471;1253;60441;-87
2023/11/02 06:38:05;;;;;;;4.90;2.30;;;;;;;13.31;100.00;100419.16;106111;1255;73822;-87
2023/11/02 06:40:45;;;;;;;5.70;3.50;;;;;;;13.37;100.00;100419.02;106271;1256;68722;-86
2023/11/02 06:43:26;;;;;;;4.20;3.10;;;;;;;13.41;100.00;100427.08;106226;1254;71822;-86
2023/11/02 06:46:07;;;;;;;5.10;2.50;;;;;;;13.55;100.00;100433.67;106958;1258;60548;-87
2023/11/02 06:48:47;;;;;;;2.90;2.30;;;;;;;13.59;100.00;100437.05;106314;1253;60343;-86
2023/11/02 06:51:27;;;;;;;2.80;2.50;;;;;;;13.66;100.00;100442.58;106227;1260;74087;-85
2023/11/02 06:54:07;;;;;;;4.20;2.80;;;;;;;13.71;100.00;100441.03;106401;1256;68509;-86
2023/11/02 06:56:47;;;;;;;5.90;2.60;;;;;;;13.76;100.00;100440.67;106687;1260;71337;-84
2023/11/02 06:59:27;;;;;;;4.00;2.40;;;;;;;13.84;100.00;100440.27;106190;1260;60551;-87
2023/11/02 07:02:06;;;;;;;7.00;2.80;;;;;;;13.94;100.00;100445.25;106333;1253;60364;-86
2023/11/02 07:04:48;;;;;;;4.50;2.70;;;;;;;14.05;100.00;100449.92;106183;1253;72669;-86
2023/11/02 11:08:07;;;;;;;4.20;2.00;;;;;;;19.04;100.00;100429.13;106264;1253;62387;-87
2023/11/02 11:10:35;;;;;;;3.80;1.90;;;;;;;18.98;100.00;100429.47;106546;1252;60926;-85
2023/11/02 11:13:10;;;;;;;2.80;2.10;;;;;;;18.90;100.00;100426.46;106142;1253;74634;-87
2023/11/02 11:15:38;;;;;;;3.00;1.60;;;;;;;18.58;100.00;100427.15;106132;1253;68993;-87
2023/11/02 11:18:06;;;;;;;2.80;1.70;;;;;;;18.46;100.00;100429.07;106196;1253;74197;-85
2023/11/02 11:20:42;;;;;;;2.10;1.40;;;;;;;18.36;100.00;100428.73;107279;1254;62109;-86
2023/11/02 11:23:16;;;;;;;2.10;1.70;;;;;;;18.22;100.00;100427.21;106378;1253;60547;-87
2023/11/02 11:26:05;;;;;;;2.50;1.70;;;;;;;18.23;100.00;100425.43;106263;1253;75877;-87
2023/11/02 11:28:34;;;;;;;4.10;1.50;;;;;;;18.29;100.00;100426.88;106343;1253;67715;-87
2023/11/02 11:31:10;;;;;;;2.40;1.50;;;;;;;18.39;100.00;100426.30;106870;1254;73662;-87
2023/11/02 11:33:47;;;;;;;1.90;1.30;;;;;;;18.50;100.00;100419.35;106447;1253;62578;-86
2023/11/02 11:36:22;;;;;;;2.70;1.70;;;;;;;18.61;100.00;100417.40;106329;1253;62079;-86
2023/11/02 11:38:51;;;;;;;2.80;1.70;;;;;;;18.71;100.00;100411.55;106205;1256;75828;-86
2023/11/02 11:41:48;;;;;;;2.20;1.60;;;;;;;18.82;100.00;100411.45;107134;1253;71105;-86
2023/11/02 11:44:23;;;;;;;3.00;2.00;;;;;;;18.89;100.00;100404.68;106059;1260;72802;-87
2023/11/02 11:46:56;;;;;;;2.40;2.00;;;;;;;18.88;100.00;100398.49;106144;1255;60613;-87
2023/11/02 11:49:33;;;;;;;2.80;1.70;;;;;;;18.92;100.00;100400.23;106095;1256;62169;-87
2023/11/02 11:52:05;;;;;;;2.90;1.50;;;;;;;18.96;100.00;100396.23;107014;1253;76175;-88
2023/11/02 11:54:42;;;;;;;3.60;2.20;;;;;;;18.99;100.00;100398.74;106219;1258;69002;-88
2023/11/02 11:57:16;;;;;;;4.60;2.20;;;;;;;18.87;100.00;100401.05;106120;1253;74739;-88
2023/11/02 11:59:56;;;;;;;3.70;2.20;;;;;;;18.83;100.00;100404.08;106174;1255;61259;-87
2023/11/02 12:02:38;;;;;;;6.20;2.00;;;;;;;18.83;100.00;100404.64;106820;1253;60416;-85
2023/11/02 12:05:19;;;;;;;2.30;2.10;;;;;;;18.80;100.00;100416.27;106417;1254;74561;-85
2023/11/02 12:07:47;;;;;;;3.50;1.90;;;;;;;18.78;100.00;100419.05;106339;1254;67842;-86
2023/11/02 12:10:22;;;;;;;2.50;2.10;;;;;;;18.82;100.00;100411.93;106228;1253;73998;-85
2023/11/02 12:13:03;;;;;;;2.40;1.80;;;;;;;18.94;100.00;100413.64;106633;1253;61460;-84
2023/11/02 12:15:36;;;;;;;2.00;1.70;;;;;;;18.84;100.00;100411.71;106186;1258;60379;-84
2023/11/02 12:18:13;;;;;;;5.60;2.20;;;;;;;18.86;100.00;100408.13;106079;1260;75933;-83
2023/11/02 12:20:47;;;;;;;4.60;1.80;;;;;;;19.00;100.00;100408.58;106078;1254;68349;-85
2023/11/02 12:23:31;;;;;;;2.50;1.20;;;;;;;19.05;100.00;100402.23;106733;1253;72509;-86
2023/11/02 12:26:07;;;;;;;3.20;1.70;;;;;;;19.23;100.00;100398.30;106271;1258;61039;-85
2023/11/02 12:28:45;;;;;;;3.10;1.80;;;;;;;19.34;100.00;100405.59;106254;1258;61230;-86
2023/11/02 12:31:33;;;;;;;2.80;1.60;;;;;;;19.42;100.00;100406.60;106446;1253;74979;-87
2023/11/02 12:34:11;;;;;;;3.00;1.60;;;;;;;19.49;100.00;100407.47;106938;1256;69589;-86
2023/11/02 12:36:42;;;;;;;2.10;1.60;;;;;;;19.44;100.00;100405.34;106227;1254;73863;-88
2023/11/02 12:39:20;;;;;;;1.60;1.40;;;;;;;19.50;100.00;100411.08;106277;1258;61764;-85
2023/11/02 12:41:51;;;;;;;3.40;1.80;;;;;;;19.53;100.00;100410.93;106289;1255;61408;-86
2023/11/02 12:44:26;;;;;;;3.40;1.80;;;;;;;19.50;100.00;100409.81;106782;1258;73937;-86
2023/11/02 12:47:04;;;;;;;4.40;2.80;;;;;;;19.48;100.00;100411.55;106223;1253;71204;-86
2023/11/02 12:49:38;;;;;;;1.90;1.70;;;;;;;19.50;100.00;100415.83;106225;1255;73467;-85
2023/11/02 12:52:09;;;;;;;4.50;2.30;;;;;;;19.46;100.00;100420.80;106344;1254;61253;-85
2023/11/02 12:54:37;;;;;;;5.30;2.70;;;;;;;19.38;100.00;100413.55;106646;1253;60753;-84
2023/11/02 12:57:09;;;;;;;2.10;1.40;;;;;;;19.24;100.00;100414.72;106227;1253;73825;-85
2023/11/02 12:59:46;;;;;;;1.40;1.30;;;;;;;19.16;100.00;100419.73;106186;1253;68649;-86
2023/11/02 13:02:24;;;;;;;2.50;1.40;;;;;;;19.07;100.00;100419.14;106347;1256;73802;-84
2023/11/02 13:04:59;;;;;;;2.60;1.40;;;;;;;18.94;100.00;100419.27;107206;1254;62287;-85
2023/11/02 13:07:36;;;;;;;3.30;1.60;;;;;;;18.85;100.00;100418.23;106271;1253;61945;-84
2023/11/02 13:10:07;;;;;;;4.80;1.90;;;;;;;18.81;100.00;100419.24;106178;1253;74979;-85
2023/11/02 13:12:41;;;;;;;4.20;1.40;;;;;;;18.66;100.00;100417.60;106123;1253;72149;-84
2023/11/02 13:15:15;;;;;;;2.20;1.20;;;;;;;18.49;100.00;100421.59;106546;1256;73541;-84
2023/11/02 13:17:49;;;;;;;2.30;1.60;;;;;;;18.42;100.00;100421.93;106071;1258;62337;-84
2023/11/02 13:20:21;;;;;;;3.00;1.20;;;;;;;18.42;100.00;100425.66;105988;1253;61942;-86
2023/11/02 13:22:59;;;;;;;1.80;1.00;;;;;;;18.41;100.00;100426.95;106277;1253;75181;-85
2023/11/02 13:25:30;;;;;;;1.60;1.10;;;;;;;18.34;100.00;100428.89;106900;1253;69613;-87
2023/11/02 13:28:07;;;;;;;1.20;1.10;;;;;;;18.30;100.00;100427.15;106204;1253;74715;-87
2023/11/02 13:30:36;;;;;;;1.10;1.00;;;;;;;18.28;100.00;100429.11;106336;1258;63969;-86
2023/11/02 13:33:05;;;;;;;1.50;1.10;;;;;;;18.31;100.00;100429.71;106629;1253;61517;-86
2023/11/02 13:35:44;;;;;;;1.90;1.10;;;;;;;18.29;100.00;100428.98;106377;1256;74553;-86
2023/11/02 13:38:19;;;;;;;1.40;1.20;;;;;;;18.27;100.00;100428.14;106182;1256;68526;-86
2023/11/02 13:40:47;;;;;;;1.70;1.30;;;;;;;18.28;100.00;100426.52;106189;1255;74914;-86
2023/11/02 13:43:17;;;;;;;2.90;1.50;;;;;;;18.24;100.00;100425.01;106210;1253;62042;-87
2023/11/02 13:45:50;;;;;;;3.30;1.50;;;;;;;18.10;100.00;100427.59;106787;1254;60912;-87
2023/11/02 13:48:19;;;;;;;2.70;1.70;;;;;;;18.05;100.00;100431.54;106278;1258;75250;-86
2023/11/02 13:50:50;;;;;;;2.80;1.80;;;;;;;18.05;100.00;100430.54;106313;1253;67639;-86
2023/11/02 13:53:19;;;;;;;1.60;1.30;;;;;;;18.05;100.00;100427.98;106217;1256;74580;-86
2023/11/02 13:55:47;;;;;;;4.50;1.40;;;;;;;18.08;100.00;100421.32;106399;1258;60947;-86
2023/11/02 13:58:14;;;;;;;1.70;1.40;;;;;;;18.00;100.00;100424.08;106899;1254;60407;-86
2023/11/02 14:00:42;;;;;;;1.20;1.10;;;;;;;17.87;100.00;100420.89;106243;1254;74181;-86
2023/11/02 14:03:10;;;;;;;1.90;1.30;;;;;;;17.77;100.00;100414.77;106357;1258;71297;-87
2023/11/02 14:05:45;;;;;;;3.20;1.70;;;;;;;17.71;100.00;100410.70;106140;1256;72816;-86
2023/11/02 14:08:20;;;;;;;3.10;2.40;;;;;;;17.58;100.00;100415.06;106495;1256;61360;-87
2023/11/02 14:10:48;;;;;;;2.70;1.80;;;;;;;17.36;100.00;100415.41;106165;1256;61121;-87
2023/11/02 14:13:15;;;;;;;3.00;1.80;;;;;;;17.23;100.00;100419.60;106326;1253;73009;-86
2023/11/02 14:15:43;;;;;;;1.80;1.50;;;;;;;17.20;100.00;100418.17;106235;1258;69641;-87
2023/11/02 14:18:11;;;;;;;2.10;1.70;;;;;;;17.19;100.00;100422.21;106787;1256;72496;-87
2023/11/02 14:20:39;;;;;;;5.60;1.80;;;;;;;17.09;100.00;100418.60;106279;1256;60355;-86
2023/11/02 14:23:11;;;;;;;1.80;1.40;;;;;;;16.95;100.00;100420.51;106378;1254;60342;-86
2023/11/02 14:25:44;;;;;;;1.70;1.50;;;;;;;16.83;100.00;100416.20;106193;1253;76111;-87
2023/11/02 14:28:19;;;;;;;3.60;1.60;;;;;;;16.71;100.00;100418.06;106304;1258;68342;-88
2023/11/02 14:30:54;;;;;;;2.20;1.40;;;;;;;16.58;100.00;100416.34;106731;1253;73654;-87
2023/11/02 14:33:43;;;;;;;2.60;1.50;;;;;;;16.47;100.00;100415.63;106339;1255;61150;-88
2023/11/02 14:36:23;;;;;;;1.80;1.30;;;;;;;16.22;100.00;100416.15;106534;1253;60444;-88
2023/11/02 14:38:53;;;;;;;4.20;1.50;;;;;;;16.08;100.00;100414.49;107003;1253;75876;-88
2023/11/02 14:41:27;;;;;;;2.80;2.10;;;;;;;15.92;100.00;100416.17;106301;1256;70342;-87
2023/11/02 14:43:55;;;;;;;2.20;1.70;;;;;;;15.82;100.00;100410.48;106415;1253;73770;-87
2023/11/02 14:46:29;;;;;;;3.90;2.10;;;;;;;15.72;100.00;100413.45;106202;1253;63306;-89
2023/11/02 14:49:09;;;;;;;2.80;2.10;;;;;;;15.67;100.00;100411.09;106753;1254;62416;-88
2023/11/02 14:51:53;;;;;;;2.40;1.90;;;;;;;15.49;100.00;100409.89;106268;1253;72744;-88
2023/11/02 14:54:25;;;;;;;6.00;2.20;;;;;;;15.32;100.00;100406.81;106209;1258;69886;-88
2023/11/02 14:56:59;;;;;;;6.60;2.10;;;;;;;15.19;100.00;100410.10;106304;1253;74600;-87
2023/11/02 14:59:33;;;;;;;3.10;1.80;;;;;;;15.01;100.00;100411.13;107066;1253;62803;-86
2023/11/02 15:02:10;;;;;;;4.30;2.30;;;;;;;14.78;100.00;100410.48;106163;1258;61153;-86
2023/11/02 15:04:41;;;;;;;3.50;2.30;;;;;;;14.59;100.00;100413.84;106185;1253;74395;-87
2023/11/02 15:07:15;;;;;;;5.50;2.80;;;;;;;14.54;100.00;100414.70;106426;1253;69489;-86
2023/11/02 15:09:50;;;;;;;5.40;2.40;;;;;;;14.37;100.00;100417.77;106443;1255;73471;-87
2023/11/02 15:12:24;;;;;;;3.90;2.10;;;;;;;14.24;100.00;100417.01;106141;1256;63862;-87
2023/11/02 15:14:52;;;;;;;2.90;1.90;;;;;;;14.12;100.00;100419.41;106227;1258;61236;-87
2023/11/02 15:17:28;;;;;;;3.70;2.50;;;;;;;13.88;100.00;100422.51;106531;1257;76008;-88
2023/11/02 15:20:05;;;;;;;5.40;2.00;;;;;;;13.86;100.00;100429.73;106622;1258;69437;-87
2023/11/02 15:22:40;;;;;;;3.90;2.30;;;;;;;13.86;100.00;100430.95;106254;1256;74555;-87
2023/11/02 15:25:08;;;;;;;6.20;3.10;;;;;;;13.76;100.00;100430.49;106116;1253;63925;-87
2023/11/02 15:27:43;;;;;;;7.90;3.10;;;;;;;13.65;100.00;100430.42;106434;1254;60619;-87
2023/11/02 15:30:17;;;;;;;4.70;2.70;;;;;;;13.39;100.00;100436.28;105958;1256;74198;-87
2023/11/02 15:32:45;;;;;;;5.30;2.60;;;;;;;13.26;100.00;100440.14;106206;1258;69507;-86
2023/11/02 15:35:19;;;;;;;8.80;3.00;;;;;;;13.18;100.00;100439.14;106269;1258;70461;-87
2023/11/02 15:37:53;;;;;;;4.00;2.40;;;;;;;13.23;100.00;100440.77;106797;1253;60766;-86
2023/11/02 15:40:27;;;;;;;28.90;9.50;;;;;;;13.15;100.00;100441.11;106134;1253;62392;-86
2023/11/02 15:42:56;;;;;;;34.50;10.60;;;;;;;12.97;100.00;100448.61;106372;1253;74981;-87
2023/11/02 15:45:29;;;;;;;29.00;9.30;;;;;;;12.87;100.00;100450.55;106285;1253;70299;-86
2023/11/02 15:48:00;;;;;;;11.10;4.40;;;;;;;12.81;100.00;100453.53;106481;1254;74144;-86
2023/11/02 15:50:32;;;;;;;9.10;4.50;;;;;;;12.88;100.00;100455.08;106809;1258;62197;-86
2023/11/02 15:53:00;;;;;;;11.60;5.20;;;;;;;12.92;100.00;100448.62;106369;1258;60449;-84
2023/11/02 15:55:30;;;;;;;16.00;4.60;;;;;;;12.65;100.00;100446.33;106322;1256;73828;-84
2023/11/02 15:58:04;;;;;;;10.00;4.70;;;;;;;12.56;100.00;100442.72;106868;1258;70152;-84
2023/11/02 16:00:33;;;;;;;16.50;4.50;;;;;;;12.44;100.00;100446.20;106186;1256;74114;-84
2023/11/02 16:03:00;;;;;;;10.40;4.30;;;;;;;12.28;100.00;100448.58;106292;1256;62800;-84
2023/11/02 16:05:28;;;;;;;9.80;4.30;;;;;;;12.17;100.00;100457.18;106209;1259;62263;-85
2023/11/02 16:07:57;;;;;;;12.00;4.00;;;;;;;12.10;100.00;100453.26;106166;1253;71665;-85
2023/11/02 16:10:26;;;;;;;9.10;3.90;;;;;;;12.05;100.00;100452.92;106842;1256;71134;-85
2023/11/02 16:12:54;;;;;;;11.50;4.70;;;;;;;12.02;100.00;100449.38;106364;1253;73657;-85
2023/11/02 16:15:22;;;;;;;6.40;4.00;;;;;;;12.05;100.00;100454.90;106266;1256;62156;-86
2023/11/02 16:17:56;;;;;;;7.20;3.40;;;;;;;11.87;100.00;100453.67;106203;1253;61123;-85
2023/11/02 16:20:24;;;;;;;4.80;2.60;;;;;;;11.80;100.00;100450.38;106621;1253;76172;-85
2023/11/02 16:22:54;;;;;;;8.40;2.90;;;;;;;11.69;100.00;100448.98;106162;1259;70829;-84
2023/11/02 16:25:22;;;;;;;7.60;3.60;;;;;;;11.64;100.00;100449.91;106215;1259;74356;-84
2023/11/02 16:27:52;;;;;;;7.70;4.00;;;;;;;11.60;100.00;100447.16;106221;1253;61192;-84
2023/11/02 16:30:25;;;;;;;11.80;4.60;;;;;;;11.56;100.00;100447.90;106686;1253;61269;-84
2023/11/02 16:32:53;;;;;;;19.20;7.60;;;;;;;11.55;100.00;100457.48;106254;1258;75641;-84
2023/11/02 16:35:22;;;;;;;24.50;9.30;;;;;;;11.47;100.00;100455.75;106077;1254;69469;-84
2023/11/02 16:38:00;;;;;;;22.10;10.00;;;;;;;11.39;100.00;100453.55;106179;1255;75427;-84
2023/11/02 16:40:29;;;;;;;22.60;9.00;;;;;;;11.35;100.00;100452.27;106811;1254;60871;-84
2023/11/02 16:43:05;;;;;;;21.30;8.70;;;;;;;11.33;100.00;100459.45;106218;1253;60636;-84
2023/11/02 16:45:34;;;;;;;18.30;8.50;;;;;;;11.26;100.00;100457.98;106242;1253;75687;-84
2023/11/02 16:48:02;;;;;;;20.20;9.70;;;;;;;11.24;100.00;100457.88;106209;1253;69782;-84
2023/11/02 16:50:30;;;;;;;19.70;9.90;;;;;;;11.25;100.00;100459.84;107034;1255;74031;-84
2023/11/02 16:53:04;;;;;;;19.10;10.00;;;;;;;11.20;100.00;100461.61;106230;1258;61188;-84
2023/11/02 16:55:31;;;;;;;19.70;9.40;;;;;;;11.14;100.00;100457.44;106212;1254;61094;-84
2023/11/02 16:57:59;;;;;;;21.20;10.30;;;;;;;11.10;100.00;100460.31;106204;1258;74289;-84
2023/11/02 17:00:34;;;;;;;25.40;10.60;;;;;;;11.05;100.00;100457.60;106106;1261;69599;-84
2023/11/02 17:03:02;;;;;;;21.20;10.10;;;;;;;11.14;100.00;100459.08;107220;1253;74950;-85
2023/11/02 17:05:36;;;;;;;15.60;7.80;;;;;;;11.10;100.00;100457.08;106318;1253;63484;-84
2023/11/02 17:08:04;;;;;;;15.50;8.30;;;;;;;11.20;100.00;100456.09;106239;1253;60534;-84
2023/11/02 17:10:34;;;;;;;20.80;10.30;;;;;;;11.00;100.00;100457.67;106085;1261;76163;-84
2023/11/02 17:13:03;;;;;;;19.70;9.60;;;;;;;10.79;100.00;100462.38;106407;1253;69078;-84
2023/11/02 17:15:31;;;;;;;20.10;8.40;;;;;;;10.88;100.00;100465.06;106300;1259;261174;-84
2023/11/02 17:17:59;;;;;;;16.00;7.30;;;;;;;10.94;100.00;100466.41;106190;1261;62769;-85
2023/11/02 17:20:27;;;;;;;16.50;8.20;;;;;;;10.99;100.00;100463.15;106230;1258;60445;-84
2023/11/02 17:22:55;;;;;;;19.00;8.80;;;;;;;11.03;100.00;100467.41;106767;1253;74826;-85
2023/11/02 17:25:29;;;;;;;16.50;8.00;;;;;;;10.91;100.00;100470.30;106233;1258;70578;-84
2023/11/02 17:28:03;;;;;;;14.00;6.80;;;;;;;10.80;100.00;100469.83;106176;1258;73815;-84
2023/11/02 17:30:30;;;;;;;16.10;7.90;;;;;;;10.79;100.00;100468.73;106252;1256;62394;-84
2023/11/02 17:32:58;;;;;;;17.90;8.10;;;;;;;10.76;100.00;100469.23;107078;1253;61892;-84
2023/11/02 17:35:26;;;;;;;15.70;6.90;;;;;;;10.65;100.00;100469.49;106441;1253;75082;-85
2023/11/02 17:37:54;;;;;;;19.90;8.40;;;;;;;10.67;100.00;100474.57;106236;1253;70198;-85
2023/11/02 17:40:22;;;;;;;15.60;7.60;;;;;;;10.56;100.00;100476.59;106220;1258;72912;-85
2023/11/02 17:42:51;;;;;;;16.90;8.30;;;;;;;10.27;100.00;100477.61;106473;1259;60377;-85
2023/11/02 17:45:19;;;;;;;14.30;6.80;;;;;;;10.08;100.00;100479.39;106213;1258;60414;-84
2023/11/02 17:47:47;;;;;;;11.70;6.10;;;;;;;10.00;100.00;100484.75;106271;1254;76073;-84
2023/11/02 17:50:18;;;;;;;10.30;5.70;;;;;;;9.95;100.00;100480.50;106331;1256;69901;-85
2023/11/02 17:52:52;;;;;;;14.80;6.50;;;;;;;9.93;100.00;100480.66;107010;1255;73722;-84
2023/11/02 17:55:25;;;;;;;12.80;6.80;;;;;;;9.93;100.00;100482.58;106321;1258;60567;-85
2023/11/02 17:57:58;;;;;;;19.20;7.70;;;;;;;9.83;100.00;100480.17;106283;1253;60693;-85
2023/11/02 18:00:36;;;;;;;16.90;8.10;;;;;;;9.86;100.00;100485.90;106415;1259;74938;-87
2023/11/02 18:03:04;;;;;;;11.60;7.20;;;;;;;9.88;100.00;100489.13;106853;1257;69603;-85
2023/11/02 18:05:38;;;;;;;15.60;7.90;;;;;;;9.78;100.00;100484.27;106292;1258;73718;-85
2023/11/02 18:08:09;;;;;;;16.90;7.50;;;;;;;9.66;100.00;100483.67;106278;1256;63522;-85
2023/11/02 18:10:37;;;;;;;19.40;8.00;;;;;;;9.65;100.00;100482.20;106347;1259;60975;-85
2023/11/02 18:13:07;;;;;;;14.80;7.20;;;;;;;9.60;100.00;100483.84;106953;1259;74845;-85
2023/11/02 18:15:42;;;;;;;13.10;6.40;;;;;;;9.45;100.00;100489.55;106398;1258;70801;-86
2023/11/02 18:18:10;;;;;;;10.50;5.90;;;;;;;9.33;100.00;100497.77;106160;1262;76257;-86
2023/11/02 18:20:40;;;;;;;16.40;7.60;;;;;;;9.29;100.00;100499.29;106327;1259;63100;-86
2023/11/02 18:23:13;;;;;;;14.00;6.20;;;;;;;9.25;100.00;100500.48;107056;1255;61020;-86
2023/11/02 18:25:41;;;;;;;13.70;7.10;;;;;;;9.21;100.00;100498.23;106230;1258;76033;-85
2023/11/02 18:28:12;;;;;;;18.10;8.50;;;;;;;9.19;100.00;100502.70;106051;1261;69488;-86
2023/11/02 18:30:40;;;;;;;21.40;10.50;;;;;;;9.11;100.00;100505.35;106246;1254;74442;-85
2023/11/02 18:33:14;;;;;;;17.00;8.00;;;;;;;9.11;100.00;100506.99;107151;1254;63661;-87
2023/11/02 18:35:42;;;;;;;12.30;6.30;;;;;;;9.00;100.00;100509.88;106285;1259;62803;-85
2023/11/02 18:38:11;;;;;;;12.00;6.60;;;;;;;8.96;100.00;100509.16;106264;1254;76286;-85
2023/11/02 18:40:45;;;;;;;12.50;5.90;;;;;;;8.99;100.00;100515.50;106329;1258;71538;-85
2023/11/02 18:43:13;;;;;;;11.40;5.80;;;;;;;8.85;100.00;100512.57;106834;1258;73813;-86
2023/11/02 18:45:41;;;;;;;13.60;6.40;;;;;;;8.80;100.00;100516.69;106243;1261;61244;-86
2023/11/02 18:48:09;;;;;;;9.70;5.60;;;;;;;8.79;100.00;100517.13;106177;1255;62366;-86
2023/11/02 18:50:37;;;;;;;11.90;6.70;;;;;;;8.70;100.00;100516.48;106249;1254;75976;-86
2023/11/02 18:53:05;;;;;;;9.80;6.10;;;;;;;8.59;100.00;100512.88;106265;1259;70579;-86